createdAt,value
2018-02-22T00:00:01.547Z,44.20
2018-02-22T00:01:01.537Z,45.30
2018-02-22T00:02:01.520Z,44.90
2018-02-22T00:03:01.495Z,45.00
2018-02-22T00:04:01.479Z,44.80
2018-02-22T00:05:01.461Z,43.40
2018-02-22T00:06:01.448Z,43.80
2018-02-22T00:07:01.430Z,44.10
2018-02-22T00:08:01.405Z,45.80
2018-02-22T00:09:01.390Z,44.40
2018-02-22T00:10:01.379Z,43.40
2018-02-22T00:11:01.352Z,41.10
2018-02-22T00:12:01.336Z,45.90
2018-02-22T00:13:01.317Z,46.20
2018-02-22T00:14:01.299Z,43.10
2018-02-22T00:15:01.282Z,42.40
2018-02-22T00:16:01.269Z,45.90
2018-02-22T00:17:01.252Z,42.80
2018-02-22T00:18:01.227Z,43.30
2018-02-22T00:19:01.208Z,41.20
2018-02-22T00:20:01.193Z,41.70
2018-02-22T00:21:01.183Z,43.40
2018-02-22T00:22:01.157Z,42.50
2018-02-22T00:23:01.143Z,45.30
2018-02-22T00:24:01.120Z,43.80
2018-02-22T00:25:01.102Z,46.10
2018-02-22T00:26:01.086Z,48.50
2018-02-22T00:27:01.068Z,44.60
2018-02-22T00:28:01.047Z,43.90
2018-02-22T00:29:01.030Z,42.60
2018-02-22T00:30:01.016Z,45.30
2018-02-22T00:31:00.993Z,41.20
2018-02-22T00:32:01.014Z,44.40
2018-02-22T00:33:00.964Z,46.90
2018-02-22T00:34:00.946Z,45.80
2018-02-22T00:35:00.922Z,48.20
2018-02-22T00:36:00.903Z,45.90
2018-02-22T00:37:00.893Z,44.30
2018-02-22T00:38:00.870Z,46.70
2018-02-22T00:39:00.852Z,43.70
2018-02-22T00:40:00.832Z,46.20
2018-02-22T00:41:00.816Z,42.70
2018-02-22T00:42:00.803Z,46.50
2018-02-22T00:43:00.778Z,45.60
2018-02-22T00:44:00.760Z,42.00
2018-02-22T00:45:00.748Z,47.60
2018-02-22T00:46:00.723Z,43.20
2018-02-22T00:47:00.707Z,45.50
2018-02-22T00:48:00.688Z,45.80
2018-02-22T00:49:00.671Z,45.60
2018-02-22T00:50:00.653Z,44.90
2018-02-22T00:51:00.639Z,45.00
2018-02-22T00:52:00.625Z,45.60
2018-02-22T00:53:00.602Z,45.40
2018-02-22T00:54:00.581Z,44.20
2018-02-22T00:55:00.566Z,44.50
2018-02-22T00:56:00.549Z,47.30
2018-02-22T00:57:00.526Z,45.70
2018-02-22T00:58:00.509Z,47.70
2018-02-22T00:59:00.493Z,45.60
2018-02-22T01:00:00.472Z,44.50
2018-02-22T01:01:00.455Z,45.40
2018-02-22T01:02:00.435Z,45.00
2018-02-22T01:03:00.423Z,44.80
2018-02-22T01:04:00.400Z,47.10
2018-02-22T01:05:00.384Z,43.60
2018-02-22T01:06:00.365Z,44.80
2018-02-22T01:07:00.347Z,41.90
2018-02-22T01:08:00.331Z,44.40
2018-02-22T01:09:00.314Z,41.50
2018-02-22T01:10:00.295Z,43.20
2018-02-22T01:11:00.275Z,43.30
2018-02-22T01:12:00.260Z,42.90
2018-02-22T01:13:00.241Z,45.40
2018-02-22T01:14:00.221Z,44.30
2018-02-22T01:15:00.206Z,46.30
2018-02-22T01:16:00.187Z,42.00
2018-02-22T01:17:00.168Z,43.20
2018-02-22T01:18:00.151Z,44.50
2018-02-22T01:19:00.132Z,43.40
2018-02-22T01:20:00.120Z,40.80
2018-02-22T01:21:00.096Z,43.30
2018-02-22T01:22:00.080Z,44.80
2018-02-22T01:23:00.067Z,44.60
2018-02-22T01:24:00.046Z,42.80
2018-02-22T01:25:00.028Z,43.20
2018-02-22T01:26:00.009Z,41.90
2018-02-22T01:26:59.989Z,44.20
2018-02-22T01:27:59.972Z,46.50
2018-02-22T01:28:59.959Z,39.60
2018-02-22T01:29:59.936Z,42.70
2018-02-22T01:30:59.916Z,44.30
2018-02-22T01:31:59.901Z,41.10
2018-02-22T01:32:59.882Z,42.90
2018-02-22T01:33:59.863Z,42.60
2018-02-22T01:34:59.844Z,43.20
2018-02-22T01:35:59.828Z,42.40
2018-02-22T01:36:59.809Z,42.70
2018-02-22T01:37:59.797Z,46.10
2018-02-22T01:38:59.780Z,43.10
2018-02-22T01:39:59.754Z,45.20
2018-02-22T01:40:59.736Z,43.40
2018-02-22T01:41:59.731Z,43.70
2018-02-22T01:42:59.701Z,45.30
2018-02-22T01:43:59.683Z,42.00
2018-02-22T01:44:59.664Z,45.20
2018-02-22T01:45:59.647Z,44.30
2018-02-22T01:46:59.633Z,42.50
2018-02-22T01:47:59.610Z,43.00
2018-02-22T01:48:59.591Z,43.90
2018-02-22T01:49:59.573Z,44.90
2018-02-22T01:50:59.554Z,43.70
2018-02-22T01:51:59.538Z,43.30
2018-02-22T01:52:59.523Z,45.50
2018-02-22T01:53:59.503Z,46.20
2018-02-22T01:54:59.481Z,50.20
2018-02-22T01:55:59.469Z,46.30
2018-02-22T01:56:59.445Z,46.50
2018-02-22T01:57:59.428Z,45.60
2018-02-22T01:58:59.408Z,40.70
2018-02-22T01:59:59.390Z,46.50
2018-02-22T02:00:59.378Z,45.40
2018-02-22T02:01:59.356Z,44.90
2018-02-22T02:02:59.337Z,44.30
2018-02-22T02:03:59.318Z,46.10
2018-02-22T02:04:59.298Z,44.80
2018-02-22T02:05:59.281Z,46.40
2018-02-22T02:06:59.264Z,43.00
2018-02-22T02:07:59.241Z,43.50
2018-02-22T02:08:59.226Z,45.00
2018-02-22T02:09:59.206Z,46.70
2018-02-22T02:10:59.189Z,47.10
2018-02-22T02:11:59.168Z,45.40
2018-02-22T02:12:59.151Z,45.80
2018-02-22T02:13:59.134Z,50.40
2018-02-22T02:14:59.114Z,47.40
2018-02-22T02:15:59.096Z,46.90
2018-02-22T02:16:59.077Z,46.00
2018-02-22T02:17:59.060Z,48.00
2018-02-22T02:18:59.047Z,46.30
2018-02-22T02:19:59.028Z,43.80
2018-02-22T02:20:59.005Z,43.50
2018-02-22T02:21:58.988Z,44.60
2018-02-22T02:22:58.967Z,44.60
2018-02-22T02:23:58.950Z,47.20
2018-02-22T02:24:58.937Z,44.20
2018-02-22T02:25:58.912Z,44.10
2018-02-22T02:26:58.899Z,45.20
2018-02-22T02:27:58.874Z,46.40
2018-02-22T02:28:58.857Z,45.30
2018-02-22T02:29:58.837Z,45.80
2018-02-22T02:30:58.823Z,48.30
2018-02-22T02:31:58.810Z,48.40
2018-02-22T02:32:58.786Z,42.60
2018-02-22T02:33:58.765Z,42.90
2018-02-22T02:34:58.748Z,49.00
2018-02-22T02:35:58.735Z,48.90
2018-02-22T02:36:58.719Z,46.20
2018-02-22T02:37:58.689Z,43.60
2018-02-22T02:38:58.677Z,46.10
2018-02-22T02:39:58.649Z,50.50
2018-02-22T02:40:58.644Z,47.50
2018-02-22T02:41:58.622Z,46.50
2018-02-22T02:42:58.599Z,50.60
2018-02-22T02:43:58.577Z,49.30
2018-02-22T02:44:58.560Z,47.70
2018-02-22T02:45:58.541Z,48.10
2018-02-22T02:46:58.518Z,45.50
2018-02-22T02:47:58.500Z,47.80
2018-02-22T02:48:58.482Z,45.90
2018-02-22T02:49:58.464Z,47.20
2018-02-22T02:50:58.446Z,45.70
2018-02-22T02:51:58.431Z,48.10
2018-02-22T02:52:58.414Z,49.50
2018-02-22T02:53:58.395Z,46.30
2018-02-22T02:54:58.371Z,44.00
2018-02-22T02:55:58.357Z,46.80
2018-02-22T02:56:58.335Z,43.40
2018-02-22T02:57:58.314Z,45.60
2018-02-22T02:58:58.294Z,50.30
2018-02-22T02:59:58.277Z,47.80
2018-02-22T03:00:58.257Z,44.70
2018-02-22T03:01:58.240Z,46.50
2018-02-22T03:02:58.232Z,44.20
2018-02-22T03:03:58.202Z,44.60
2018-02-22T03:04:58.189Z,52.30
2018-02-22T03:05:58.167Z,45.70
2018-02-22T03:06:58.147Z,42.00
2018-02-22T03:07:58.127Z,45.60
2018-02-22T03:08:58.112Z,41.70
2018-02-22T03:09:58.091Z,45.10
2018-02-22T03:10:58.070Z,44.80
2018-02-22T03:11:58.051Z,48.50
2018-02-22T03:12:58.033Z,47.20
2018-02-22T03:13:58.021Z,43.70
2018-02-22T03:14:58.000Z,42.50
2018-02-22T03:15:57.978Z,44.90
2018-02-22T03:16:57.958Z,46.10
2018-02-22T03:17:57.941Z,46.30
2018-02-22T03:18:57.921Z,45.90
2018-02-22T03:19:57.901Z,45.80
2018-02-22T03:20:57.890Z,45.10
2018-02-22T03:21:57.865Z,45.10
2018-02-22T03:22:57.854Z,46.60
2018-02-22T03:23:57.830Z,49.80
2018-02-22T03:24:57.815Z,45.30
2018-02-22T03:25:57.790Z,42.10
2018-02-22T03:26:57.773Z,51.30
2018-02-22T03:27:57.763Z,45.20
2018-02-22T03:28:57.734Z,45.20
2018-02-22T03:29:57.719Z,47.00
2018-02-22T03:30:57.696Z,45.00
2018-02-22T03:31:57.695Z,50.80
2018-02-22T03:32:57.665Z,49.00
2018-02-22T03:33:57.640Z,44.00
2018-02-22T03:34:57.628Z,45.80
2018-02-22T03:35:57.604Z,44.90
2018-02-22T03:36:57.589Z,42.60
2018-02-22T03:37:57.575Z,45.40
2018-02-22T03:38:57.548Z,44.40
2018-02-22T03:39:57.529Z,48.60
2018-02-22T03:40:57.510Z,44.40
2018-02-22T03:41:57.497Z,48.00
2018-02-22T03:42:57.470Z,47.80
2018-02-22T03:43:57.454Z,42.60
2018-02-22T03:44:57.441Z,46.00
2018-02-22T03:45:57.420Z,48.30
2018-02-22T03:46:57.401Z,45.80
2018-02-22T03:47:57.386Z,45.20
2018-02-22T03:48:57.364Z,46.70
2018-02-22T03:49:57.341Z,45.20
2018-02-22T03:50:57.323Z,46.40
2018-02-22T03:51:57.307Z,44.30
2018-02-22T03:52:57.291Z,43.20
2018-02-22T03:53:57.283Z,44.40
2018-02-22T03:54:57.247Z,46.60
2018-02-22T03:55:57.228Z,44.00
2018-02-22T03:56:57.210Z,44.50
2018-02-22T03:57:57.193Z,47.40
2018-02-22T03:58:57.171Z,44.20
2018-02-22T03:59:57.160Z,43.50
2018-02-22T04:00:57.137Z,47.00
2018-02-22T04:01:57.116Z,45.60
2018-02-22T04:02:57.098Z,43.30
2018-02-22T04:03:57.087Z,45.40
2018-02-22T04:04:57.066Z,45.40
2018-02-22T04:05:57.044Z,44.20
2018-02-22T04:06:57.029Z,46.80
2018-02-22T04:07:57.006Z,44.00
2018-02-22T04:08:56.985Z,47.30
2018-02-22T04:09:56.968Z,44.40
2018-02-22T04:10:56.949Z,44.50
2018-02-22T04:11:56.930Z,43.50
2018-02-22T04:12:56.921Z,44.40
2018-02-22T04:13:56.899Z,42.50
2018-02-22T04:14:56.872Z,45.40
2018-02-22T04:15:56.856Z,44.50
2018-02-22T04:16:56.836Z,41.90
2018-02-22T04:17:56.821Z,45.90
2018-02-22T04:18:56.806Z,44.40
2018-02-22T04:19:56.782Z,43.40
2018-02-22T04:20:56.763Z,43.90
2018-02-22T04:21:56.750Z,43.20
2018-02-22T04:22:56.727Z,40.20
2018-02-22T04:23:56.711Z,44.00
2018-02-22T04:24:56.689Z,47.00
2018-02-22T04:25:56.670Z,41.40
2018-02-22T04:26:56.648Z,42.80
2018-02-22T04:27:56.631Z,41.20
2018-02-22T04:28:56.613Z,41.90
2018-02-22T04:29:56.594Z,43.50
2018-02-22T04:30:56.582Z,43.00
2018-02-22T04:31:56.563Z,42.10
2018-02-22T04:32:56.539Z,39.60
2018-02-22T04:33:56.520Z,41.90
2018-02-22T04:34:56.503Z,42.10
2018-02-22T04:35:56.488Z,40.80
2018-02-22T04:36:56.472Z,40.00
2018-02-22T04:37:56.446Z,40.70
2018-02-22T04:38:56.433Z,42.80
2018-02-22T04:39:56.409Z,41.00
2018-02-22T04:40:56.399Z,40.70
2018-02-22T04:41:56.375Z,38.10
2018-02-22T04:42:56.361Z,38.70
2018-02-22T04:43:56.333Z,40.00
2018-02-22T04:44:56.317Z,40.70
2018-02-22T04:45:56.300Z,38.90
2018-02-22T04:46:56.278Z,39.70
2018-02-22T04:47:56.257Z,39.30
2018-02-22T04:48:56.241Z,42.00
2018-02-22T04:49:56.227Z,39.90
2018-02-22T04:50:56.203Z,39.20
2018-02-22T04:51:56.192Z,40.70
2018-02-22T04:52:56.166Z,40.20
2018-02-22T04:53:56.148Z,38.70
2018-02-22T04:54:56.134Z,39.10
2018-02-22T04:55:56.118Z,39.40
2018-02-22T04:56:56.098Z,44.70
2018-02-22T04:57:56.073Z,43.90
2018-02-22T04:58:56.057Z,41.70
2018-02-22T04:59:56.039Z,36.10
2018-02-22T05:00:56.016Z,38.00
2018-02-22T05:01:55.997Z,39.50
2018-02-22T05:02:55.985Z,38.70
2018-02-22T05:03:55.959Z,40.70
2018-02-22T05:04:55.942Z,42.00
2018-02-22T05:05:55.931Z,43.20
2018-02-22T05:06:55.905Z,41.40
2018-02-22T05:07:55.885Z,37.40
2018-02-22T05:08:55.876Z,41.00
2018-02-22T05:09:55.851Z,41.80
2018-02-22T05:10:55.829Z,41.00
2018-02-22T05:11:55.810Z,37.40
2018-02-22T05:12:55.798Z,37.50
2018-02-22T05:13:55.774Z,37.70
2018-02-22T05:14:55.754Z,39.30
2018-02-22T05:15:55.740Z,35.80
2018-02-22T05:16:55.722Z,40.80
2018-02-22T05:17:55.706Z,37.00
2018-02-22T05:18:55.680Z,40.00
2018-02-22T05:19:55.676Z,38.80
2018-02-22T05:20:55.652Z,37.90
2018-02-22T05:21:55.625Z,39.20
2018-02-22T05:22:55.605Z,40.00
2018-02-22T05:23:55.592Z,40.20
2018-02-22T05:24:55.569Z,37.50
2018-02-22T05:25:55.552Z,37.00
2018-02-22T05:26:55.534Z,42.50
2018-02-22T05:27:55.516Z,36.80
2018-02-22T05:28:55.499Z,39.50
2018-02-22T05:29:55.479Z,36.70
2018-02-22T05:30:55.459Z,38.30
2018-02-22T05:31:55.434Z,37.10
2018-02-22T05:32:55.421Z,40.80
2018-02-22T05:33:55.398Z,40.30
2018-02-22T05:34:55.384Z,37.50
2018-02-22T05:35:55.366Z,40.50
2018-02-22T05:36:55.391Z,37.80
2018-02-22T05:37:55.323Z,40.30
2018-02-22T05:38:55.306Z,40.10
2018-02-22T05:39:55.284Z,39.70
2018-02-22T05:40:55.266Z,38.00
2018-02-22T05:41:55.248Z,40.30
2018-02-22T05:42:55.227Z,40.70
2018-02-22T05:43:55.215Z,40.40
2018-02-22T05:44:55.190Z,40.50
2018-02-22T05:45:55.183Z,41.50
2018-02-22T05:46:55.154Z,38.30
2018-02-22T05:47:55.145Z,39.70
2018-02-22T05:48:55.122Z,38.90
2018-02-22T05:49:55.097Z,41.10
2018-02-22T05:50:55.078Z,39.10
2018-02-22T05:51:55.058Z,35.70
2018-02-22T05:52:55.044Z,40.90
2018-02-22T05:53:55.027Z,38.60
2018-02-22T05:54:55.002Z,38.20
2018-02-22T05:55:54.982Z,40.80
2018-02-22T05:56:54.964Z,42.80
2018-02-22T05:57:54.945Z,38.50
2018-02-22T05:58:54.926Z,39.80
2018-02-22T05:59:54.905Z,38.20
2018-02-22T06:00:54.888Z,36.70
2018-02-22T06:01:54.874Z,40.80
2018-02-22T06:02:54.852Z,40.20
2018-02-22T06:03:54.835Z,38.50
2018-02-22T06:04:54.812Z,38.40
2018-02-22T06:05:54.796Z,38.40
2018-02-22T06:06:54.774Z,37.40
2018-02-22T06:07:54.752Z,37.80
2018-02-22T06:08:54.740Z,40.00
2018-02-22T06:09:54.718Z,39.70
2018-02-22T06:10:54.695Z,39.20
2018-02-22T06:11:54.676Z,36.80
2018-02-22T06:12:54.658Z,36.30
2018-02-22T06:13:54.638Z,38.20
2018-02-22T06:14:54.633Z,38.50
2018-02-22T06:15:54.604Z,41.50
2018-02-22T06:16:54.581Z,35.70
2018-02-22T06:17:54.567Z,37.30
2018-02-22T06:18:54.546Z,36.50
2018-02-22T06:19:54.528Z,38.60
2018-02-22T06:20:54.505Z,40.10
2018-02-22T06:21:54.486Z,41.00
2018-02-22T06:22:54.470Z,35.90
2018-02-22T06:23:54.452Z,37.00
2018-02-22T06:24:54.424Z,38.80
2018-02-22T06:25:54.409Z,35.90
2018-02-22T06:26:54.392Z,37.80
2018-02-22T06:27:54.366Z,37.50
2018-02-22T06:28:54.349Z,41.10
2018-02-22T06:29:54.331Z,38.60
2018-02-22T06:30:54.308Z,36.80
2018-02-22T06:31:54.295Z,40.70
2018-02-22T06:32:54.321Z,39.70
2018-02-22T06:33:54.255Z,37.80
2018-02-22T06:34:54.230Z,38.30
2018-02-22T06:35:54.216Z,36.10
2018-02-22T06:36:54.193Z,37.80
2018-02-22T06:37:54.174Z,39.70
2018-02-22T06:38:54.152Z,37.90
2018-02-22T06:39:54.133Z,39.30
2018-02-22T06:40:54.124Z,39.10
2018-02-22T06:41:54.094Z,37.30
2018-02-22T06:42:54.080Z,38.30
2018-02-22T06:43:54.063Z,37.80
2018-02-22T06:44:54.047Z,38.80
2018-02-22T06:45:54.024Z,41.70
2018-02-22T06:46:53.999Z,40.50
2018-02-22T06:47:53.983Z,36.50
2018-02-22T06:48:53.963Z,37.00
2018-02-22T06:49:53.943Z,38.10
2018-02-22T06:50:53.928Z,38.20
2018-02-22T06:51:53.903Z,38.20
2018-02-22T06:52:53.885Z,38.40
2018-02-22T06:53:53.865Z,38.00
2018-02-22T06:54:53.846Z,40.00
2018-02-22T06:55:53.832Z,39.10
2018-02-22T06:56:53.807Z,40.50
2018-02-22T06:57:53.816Z,38.70
2018-02-22T06:58:53.768Z,43.30
2018-02-22T06:59:53.751Z,38.90
2018-02-22T07:00:53.729Z,41.60
2018-02-22T07:01:53.712Z,39.60
2018-02-22T07:02:53.694Z,38.90
2018-02-22T07:03:53.677Z,40.40
2018-02-22T07:04:53.657Z,39.90
2018-02-22T07:05:53.634Z,38.60
2018-02-22T07:06:53.618Z,36.90
2018-02-22T07:07:53.594Z,40.50
2018-02-22T07:08:53.580Z,39.70
2018-02-22T07:09:53.557Z,40.40
2018-02-22T07:10:53.543Z,43.40
2018-02-22T07:11:53.524Z,39.50
2018-02-22T07:12:53.498Z,40.80
2018-02-22T07:13:53.529Z,39.50
2018-02-22T07:14:53.510Z,36.90
2018-02-22T07:15:53.447Z,40.50
2018-02-22T07:16:53.421Z,34.50
2018-02-22T07:17:53.404Z,41.00
2018-02-22T07:18:53.388Z,39.40
2018-02-22T07:19:53.364Z,46.80
2018-02-22T07:20:53.345Z,42.70
2018-02-22T07:21:53.326Z,41.30
2018-02-22T07:22:53.307Z,37.80
2018-02-22T07:23:53.297Z,39.50
2018-02-22T07:24:53.273Z,40.60
2018-02-22T07:25:53.250Z,42.30
2018-02-22T07:26:53.232Z,40.20
2018-02-22T07:27:53.215Z,40.60
2018-02-22T07:28:53.191Z,37.30
2018-02-22T07:29:53.176Z,40.40
2018-02-22T07:30:53.150Z,41.50
2018-02-22T07:31:53.130Z,41.30
2018-02-22T07:32:53.120Z,40.60
2018-02-22T07:33:53.094Z,43.10
2018-02-22T07:34:53.075Z,39.70
2018-02-22T07:35:53.053Z,39.40
2018-02-22T07:36:53.042Z,40.60
2018-02-22T07:37:53.022Z,39.90
2018-02-22T07:38:52.996Z,39.10
2018-02-22T07:39:52.976Z,40.40
2018-02-22T07:40:52.959Z,43.30
2018-02-22T07:41:52.937Z,42.70
2018-02-22T07:42:52.925Z,39.60
2018-02-22T07:43:52.898Z,42.20
2018-02-22T07:44:52.879Z,41.80
2018-02-22T07:45:52.866Z,41.30
2018-02-22T07:46:52.841Z,43.90
2018-02-22T07:47:52.821Z,42.90
2018-02-22T07:48:52.811Z,42.90
2018-02-22T07:49:52.786Z,41.40
2018-02-22T07:50:52.764Z,42.20
2018-02-22T07:51:52.744Z,43.20
2018-02-22T07:52:52.731Z,39.20
2018-02-22T07:53:52.709Z,44.00
2018-02-22T07:54:52.692Z,41.40
2018-02-22T07:55:52.669Z,39.80
2018-02-22T07:56:52.655Z,39.00
2018-02-22T07:57:52.634Z,39.80
2018-02-22T07:58:52.611Z,41.40
2018-02-22T07:59:52.592Z,43.20
2018-02-22T08:00:52.576Z,46.30
2018-02-22T08:01:52.553Z,40.50
2018-02-22T08:02:52.532Z,40.60
2018-02-22T08:03:52.520Z,40.30
2018-02-22T08:04:52.495Z,42.30
2018-02-22T08:05:52.476Z,41.60
2018-02-22T08:06:52.455Z,41.80
2018-02-22T08:07:52.443Z,40.60
2018-02-22T08:08:52.419Z,41.90
2018-02-22T08:09:52.405Z,41.80
2018-02-22T08:10:52.381Z,40.50
2018-02-22T08:11:52.363Z,46.30
2018-02-22T08:12:52.345Z,40.70
2018-02-22T08:13:52.326Z,39.30
2018-02-22T08:14:52.302Z,38.40
2018-02-22T08:15:52.283Z,39.60
2018-02-22T08:16:52.270Z,40.50
2018-02-22T08:17:52.245Z,42.30
2018-02-22T08:18:52.226Z,42.60
2018-02-22T08:19:52.211Z,40.30
2018-02-22T08:20:52.198Z,41.20
2018-02-22T08:21:52.172Z,40.20
2018-02-22T08:22:52.147Z,40.50
2018-02-22T08:23:52.128Z,40.20
2018-02-22T08:24:52.110Z,40.80
2018-02-22T08:25:52.095Z,41.10
2018-02-22T08:26:52.069Z,42.00
2018-02-22T08:27:52.064Z,40.80
2018-02-22T08:28:52.038Z,41.30
2018-02-22T08:29:52.012Z,40.80
2018-02-22T08:30:51.999Z,39.80
2018-02-22T08:31:51.974Z,41.20
2018-02-22T08:32:51.957Z,41.50
2018-02-22T08:33:51.939Z,40.90
2018-02-22T08:34:51.922Z,38.20
2018-02-22T08:35:51.897Z,41.80
2018-02-22T08:36:51.884Z,42.90
2018-02-22T08:37:51.860Z,41.60
2018-02-22T08:38:51.838Z,42.60
2018-02-22T08:39:51.820Z,44.90
2018-02-22T08:40:51.800Z,46.30
2018-02-22T08:41:51.780Z,43.70
2018-02-22T08:42:51.764Z,45.60
2018-02-22T08:43:51.742Z,41.60
2018-02-22T08:44:51.722Z,43.80
2018-02-22T08:45:51.702Z,43.10
2018-02-22T08:46:51.692Z,44.70
2018-02-22T08:47:51.665Z,42.40
2018-02-22T08:48:51.645Z,45.40
2018-02-22T08:49:51.626Z,42.50
2018-02-22T08:50:51.606Z,39.00
2018-02-22T08:51:51.587Z,40.40
2018-02-22T08:52:51.576Z,41.60
2018-02-22T08:53:51.559Z,42.30
2018-02-22T08:54:51.530Z,41.20
2018-02-22T08:55:51.519Z,44.00
2018-02-22T08:56:51.498Z,45.00
2018-02-22T08:57:51.478Z,44.60
2018-02-22T08:58:51.456Z,43.70
2018-02-22T08:59:51.434Z,43.80
2018-02-22T09:00:51.415Z,43.60
2018-02-22T09:01:51.395Z,42.30
2018-02-22T09:02:51.377Z,45.00
2018-02-22T09:03:51.359Z,44.30
2018-02-22T09:04:51.337Z,45.80
2018-02-22T09:05:51.318Z,42.10
2018-02-22T09:06:51.299Z,45.50
2018-02-22T09:07:51.279Z,44.30
2018-02-22T09:08:51.260Z,44.10
2018-02-22T09:09:51.248Z,46.90
2018-02-22T09:10:51.222Z,46.40
2018-02-22T09:11:51.204Z,45.30
2018-02-22T09:12:51.184Z,45.20
2018-02-22T09:13:51.165Z,43.30
2018-02-22T09:14:51.150Z,48.20
2018-02-22T09:15:51.133Z,44.10
2018-02-22T09:16:51.113Z,40.70
2018-02-22T09:17:51.089Z,44.90
2018-02-22T09:18:51.072Z,44.50
2018-02-22T09:19:51.049Z,45.80
2018-02-22T09:20:51.036Z,44.60
2018-02-22T09:21:51.009Z,45.80
2018-02-22T09:22:50.989Z,43.80
2018-02-22T09:23:50.969Z,44.50
2018-02-22T09:24:50.952Z,44.10
2018-02-22T09:25:50.931Z,46.00
2018-02-22T09:26:50.911Z,43.50
2018-02-22T09:27:50.893Z,42.90
2018-02-22T09:28:50.878Z,43.30
2018-02-22T09:29:50.855Z,43.00
2018-02-22T09:30:50.841Z,43.30
2018-02-22T09:31:50.814Z,44.60
2018-02-22T09:32:50.797Z,45.60
2018-02-22T09:33:50.782Z,45.40
2018-02-22T09:34:50.764Z,44.60
2018-02-22T09:35:50.737Z,45.60
2018-02-22T09:36:50.718Z,46.50
2018-02-22T09:37:50.701Z,44.60
2018-02-22T09:38:50.679Z,46.80
2018-02-22T09:39:50.659Z,45.50
2018-02-22T09:40:50.645Z,46.20
2018-02-22T09:41:50.625Z,44.50
2018-02-22T09:42:50.601Z,44.00
2018-02-22T09:43:50.582Z,44.50
2018-02-22T09:44:50.568Z,44.50
2018-02-22T09:45:50.550Z,45.50
2018-02-22T09:46:50.528Z,46.00
2018-02-22T09:47:50.505Z,45.50
2018-02-22T09:48:50.492Z,44.80
2018-02-22T09:49:50.466Z,44.00
2018-02-22T09:50:50.445Z,45.90
2018-02-22T09:51:50.427Z,48.70
2018-02-22T09:52:50.407Z,46.30
2018-02-22T09:53:50.387Z,43.00
2018-02-22T09:54:50.373Z,47.30
2018-02-22T09:55:50.354Z,43.70
2018-02-22T09:56:50.331Z,47.80
2018-02-22T09:57:50.311Z,45.10
2018-02-22T09:58:50.289Z,44.10
2018-02-22T09:59:50.273Z,46.80
2018-02-22T10:00:50.257Z,47.90
2018-02-22T10:01:50.238Z,44.30
2018-02-22T10:02:50.210Z,45.30
2018-02-22T10:03:50.193Z,44.50
2018-02-22T10:04:50.174Z,46.40
2018-02-22T10:05:50.154Z,44.80
2018-02-22T10:06:50.140Z,46.00
2018-02-22T10:07:50.116Z,45.80
2018-02-22T10:08:50.096Z,43.30
2018-02-22T10:09:50.086Z,46.50
2018-02-22T10:10:50.058Z,45.00
2018-02-22T10:11:50.037Z,45.50
2018-02-22T10:12:50.020Z,45.80
2018-02-22T10:13:49.999Z,49.40
2018-02-22T10:14:49.980Z,45.40
2018-02-22T10:15:49.960Z,46.10
2018-02-22T10:16:49.946Z,47.00
2018-02-22T10:17:49.922Z,46.70
2018-02-22T10:18:49.902Z,43.00
2018-02-22T10:19:49.890Z,46.90
2018-02-22T10:20:49.864Z,47.90
2018-02-22T10:21:49.848Z,42.90
2018-02-22T10:22:49.827Z,44.10
2018-02-22T10:23:49.812Z,47.00
2018-02-22T10:24:49.785Z,45.70
2018-02-22T10:25:49.765Z,46.00
2018-02-22T10:26:49.749Z,45.50
2018-02-22T10:27:49.734Z,43.30
2018-02-22T10:28:49.718Z,45.90
2018-02-22T10:29:49.698Z,43.90
2018-02-22T10:30:49.672Z,46.40
2018-02-22T10:31:49.659Z,45.80
2018-02-22T10:32:49.635Z,46.00
2018-02-22T10:33:49.615Z,45.20
2018-02-22T10:34:49.602Z,45.10
2018-02-22T10:35:49.576Z,43.30
2018-02-22T10:36:49.559Z,47.00
2018-02-22T10:37:49.540Z,47.40
2018-02-22T10:38:49.524Z,45.50
2018-02-22T10:39:49.499Z,46.90
2018-02-22T10:40:49.487Z,46.50
2018-02-22T10:41:49.463Z,45.10
2018-02-22T10:42:49.446Z,46.50
2018-02-22T10:43:49.424Z,44.60
2018-02-22T10:44:49.427Z,47.00
2018-02-22T10:45:49.387Z,45.10
2018-02-22T10:46:49.367Z,46.90
2018-02-22T10:47:49.352Z,47.20
2018-02-22T10:48:49.328Z,41.40
2018-02-22T10:49:49.311Z,44.80
2018-02-22T10:50:49.290Z,41.40
2018-02-22T10:51:49.274Z,46.60
2018-02-22T10:52:49.260Z,45.40
2018-02-22T10:53:49.240Z,45.30
2018-02-22T10:54:49.245Z,43.50
2018-02-22T10:55:49.197Z,44.50
2018-02-22T10:56:49.182Z,45.90
2018-02-22T10:57:49.166Z,45.30
2018-02-22T10:58:49.140Z,43.20
2018-02-22T10:59:49.122Z,44.60
2018-02-22T11:00:49.102Z,42.10
2018-02-22T11:01:49.085Z,43.50
2018-02-22T11:02:49.065Z,44.00
2018-02-22T11:03:49.044Z,44.20
2018-02-22T11:04:49.028Z,41.70
2018-02-22T11:05:49.007Z,42.50
2018-02-22T11:06:48.987Z,43.10
2018-02-22T11:07:48.976Z,40.10
2018-02-22T11:08:48.956Z,41.90
2018-02-22T11:09:48.932Z,43.00
2018-02-22T11:10:48.918Z,41.10
2018-02-22T11:11:48.898Z,40.80
2018-02-22T11:12:48.872Z,42.40
2018-02-22T11:13:48.863Z,44.20
2018-02-22T11:14:48.836Z,41.40
2018-02-22T11:15:48.816Z,42.90
2018-02-22T11:16:48.801Z,41.50
2018-02-22T11:17:48.779Z,43.60
2018-02-22T11:18:48.765Z,43.90
2018-02-22T11:19:48.754Z,40.70
2018-02-22T11:20:48.722Z,42.50
2018-02-22T11:21:48.705Z,44.10
2018-02-22T11:22:48.691Z,40.50
2018-02-22T11:23:48.668Z,42.40
2018-02-22T11:24:48.647Z,42.40
2018-02-22T11:25:48.628Z,43.10
2018-02-22T11:26:48.611Z,41.10
2018-02-22T11:27:48.595Z,40.30
2018-02-22T11:28:48.572Z,40.60
2018-02-22T11:29:48.551Z,43.00
2018-02-22T11:30:48.532Z,41.60
2018-02-22T11:31:48.515Z,43.50
2018-02-22T11:32:48.494Z,41.00
2018-02-22T11:33:48.475Z,40.40
2018-02-22T11:34:48.455Z,40.50
2018-02-22T11:35:48.436Z,42.80
2018-02-22T11:36:48.419Z,40.60
2018-02-22T11:37:48.400Z,41.80
2018-02-22T11:38:48.383Z,42.40
2018-02-22T11:39:48.420Z,39.70
2018-02-22T11:40:48.347Z,40.90
2018-02-22T11:41:48.328Z,43.60
2018-02-22T11:42:48.312Z,42.80
2018-02-22T11:43:48.291Z,44.00
2018-02-22T11:44:48.266Z,39.60
2018-02-22T11:45:48.248Z,40.50
2018-02-22T11:46:48.229Z,38.30
2018-02-22T11:47:48.209Z,42.40
2018-02-22T11:48:48.196Z,42.80
2018-02-22T11:49:48.178Z,41.20
2018-02-22T11:50:48.151Z,42.70
2018-02-22T11:51:48.152Z,40.90
2018-02-22T11:52:48.120Z,41.00
2018-02-22T11:53:48.095Z,38.80
2018-02-22T11:54:48.077Z,38.70
2018-02-22T11:55:48.065Z,40.60
2018-02-22T11:56:48.046Z,43.20
2018-02-22T11:57:48.028Z,39.20
2018-02-22T11:58:48.007Z,40.30
2018-02-22T11:59:47.980Z,41.20
2018-02-22T12:00:47.961Z,39.70
2018-02-22T12:01:47.943Z,41.20
2018-02-22T12:02:47.925Z,41.90
2018-02-22T12:03:47.912Z,44.20
2018-02-22T12:04:47.887Z,40.40
2018-02-22T12:05:47.867Z,40.20
2018-02-22T12:06:47.848Z,40.90
2018-02-22T12:07:47.836Z,41.10
2018-02-22T12:08:47.819Z,38.30
2018-02-22T12:09:47.791Z,40.50
2018-02-22T12:10:47.773Z,40.80
2018-02-22T12:11:47.755Z,40.20
2018-02-22T12:12:47.741Z,42.00
2018-02-22T12:13:47.723Z,42.10
2018-02-22T12:14:47.703Z,45.10
2018-02-22T12:15:47.684Z,39.60
2018-02-22T12:16:47.666Z,40.70
2018-02-22T12:17:47.643Z,43.40
2018-02-22T12:18:47.630Z,38.80
2018-02-22T12:19:47.608Z,41.20
2018-02-22T12:20:47.582Z,41.00
2018-02-22T12:21:47.571Z,38.00
2018-02-22T12:22:47.545Z,39.90
2018-02-22T12:23:47.530Z,39.80
2018-02-22T12:24:47.510Z,41.20
2018-02-22T12:25:47.494Z,39.20
2018-02-22T12:26:47.469Z,39.60
2018-02-22T12:27:47.451Z,44.40
2018-02-22T12:28:47.432Z,43.80
2018-02-22T12:29:47.413Z,40.70
2018-02-22T12:30:47.394Z,38.70
2018-02-22T12:31:47.375Z,41.50
2018-02-22T12:32:47.362Z,37.40
2018-02-22T12:33:47.341Z,43.90
2018-02-22T12:34:47.317Z,37.50
2018-02-22T12:35:47.305Z,40.20
2018-02-22T12:36:47.282Z,39.50
2018-02-22T12:37:47.262Z,39.60
2018-02-22T12:38:47.241Z,41.00
2018-02-22T12:39:47.223Z,39.20
2018-02-22T12:40:47.205Z,38.60
2018-02-22T12:41:47.185Z,41.30
2018-02-22T12:42:47.171Z,37.00
2018-02-22T12:43:47.148Z,37.10
2018-02-22T12:44:47.130Z,40.50
2018-02-22T12:45:47.112Z,42.20
2018-02-22T12:46:47.093Z,38.30
2018-02-22T12:47:47.073Z,39.60
2018-02-22T12:48:47.055Z,42.90
2018-02-22T12:49:47.043Z,42.50
2018-02-22T12:50:47.015Z,40.30
2018-02-22T12:51:46.997Z,41.30